sensor_id;sensor_type;location;lat;lon;timestamp;pressure;altitude;pressure_sealevel;temperature;humidity
15405;BME280;7801;48.124;11.590;2023-11-21T00:00:38;94941.72;;;9.31;89.51
15405;BME280;7801;48.124;11.590;2023-11-21T00:03:05;94942.78;;;9.30;91.42
15405;BME280;7801;48.124;11.590;2023-11-21T00:05:33;94943.06;;;9.15;92.46
15405;BME280;7801;48.124;11.590;2023-11-21T00:08:03;94932.19;;;8.89;94.30
15405;BME280;7801;48.124;11.590;2023-11-21T00:10:33;94936.41;;;9.04;95.34
15405;BME280;7801;48.124;11.590;2023-11-21T00:13:20;94936.12;;;9.05;95.17
15405;BME280;7801;48.124;11.590;2023-11-21T00:15:46;94924.84;;;9.00;96.36
15405;BME280;7801;48.124;11.590;2023-11-21T00:18:14;94928.25;;;9.00;96.62
15405;BME280;7801;48.124;11.590;2023-11-21T00:20:40;94921.91;;;9.01;96.31
15405;BME280;7801;48.124;11.590;2023-11-21T00:23:07;94916.81;;;9.05;95.86
15405;BME280;7801;48.124;11.590;2023-11-21T00:25:33;94912.00;;;9.07;95.99
15405;BME280;7801;48.124;11.590;2023-11-21T00:27:59;94909.56;;;9.10;96.09
15405;BME280;7801;48.124;11.590;2023-11-21T00:30:30;94897.38;;;8.68;97.00
15405;BME280;7801;48.124;11.590;2023-11-21T00:33:00;94897.75;;;8.75;96.58
15405;BME280;7801;48.124;11.590;2023-11-21T00:35:26;94891.31;;;8.81;96.66
15405;BME280;7801;48.124;11.590;2023-11-21T00:37:52;94890.31;;;8.77;97.27
15405;BME280;7801;48.124;11.590;2023-11-21T00:40:19;94885.25;;;8.81;96.84
15405;BME280;7801;48.124;11.590;2023-11-21T00:42:49;94888.09;;;8.84;96.60
15405;BME280;7801;48.124;11.590;2023-11-21T00:45:14;94891.41;;;8.76;97.07
15405;BME280;7801;48.124;11.590;2023-11-21T00:47:43;94880.28;;;8.93;96.74
15405;BME280;7801;48.124;11.590;2023-11-21T00:50:09;94874.66;;;8.94;96.28
15405;BME280;7801;48.124;11.590;2023-11-21T00:52:35;94873.69;;;8.90;96.43
15405;BME280;7801;48.124;11.590;2023-11-21T00:55:04;94876.34;;;9.04;96.77
15405;BME280;7801;48.124;11.590;2023-11-21T00:57:35;94875.47;;;9.09;96.70
15405;BME280;7801;48.124;11.590;2023-11-21T01:00:22;94867.53;;;9.09;95.91
15405;BME280;7801;48.124;11.590;2023-11-21T01:02:48;94876.72;;;8.98;95.70
15405;BME280;7801;48.124;11.590;2023-11-21T01:05:16;94872.63;;;9.05;96.07
15405;BME280;7801;48.124;11.590;2023-11-21T01:07:46;94879.37;;;9.25;95.24
15405;BME280;7801;48.124;11.590;2023-11-21T01:10:13;94875.16;;;9.24;94.81
15405;BME280;7801;48.124;11.590;2023-11-21T01:12:40;94883.06;;;9.38;94.61
15405;BME280;7801;48.124;11.590;2023-11-21T01:15:06;94881.13;;;9.43;94.23
15405;BME280;7801;48.124;11.590;2023-11-21T01:17:33;94883.59;;;9.26;94.17
15405;BME280;7801;48.124;11.590;2023-11-21T01:20:01;94880.53;;;9.19;95.20
15405;BME280;7801;48.124;11.590;2023-11-21T01:22:29;94882.59;;;9.22;95.57
15405;BME280;7801;48.124;11.590;2023-11-21T01:24:56;94882.91;;;9.34;94.96
15405;BME280;7801;48.124;11.590;2023-11-21T01:27:22;94875.75;;;9.35;94.67
15405;BME280;7801;48.124;11.590;2023-11-21T01:29:50;94872.31;;;9.34;94.42
15405;BME280;7801;48.124;11.590;2023-11-21T01:32:21;94874.47;;;9.32;94.35
15405;BME280;7801;48.124;11.590;2023-11-21T01:34:47;94872.91;;;9.31;94.29
15405;BME280;7801;48.124;11.590;2023-11-21T01:37:14;94875.44;;;9.36;94.14
15405;BME280;7801;48.124;11.590;2023-11-21T01:39:39;94876.63;;;9.30;93.96
15405;BME280;7801;48.124;11.590;2023-11-21T01:42:06;94882.00;;;9.25;93.82
15405;BME280;7801;48.124;11.590;2023-11-21T01:44:35;94884.16;;;9.23;94.52
15405;BME280;7801;48.124;11.590;2023-11-21T01:47:01;94886.41;;;9.43;93.39
15405;BME280;7801;48.124;11.590;2023-11-21T01:49:35;94879.19;;;9.35;93.20
15405;BME280;7801;48.124;11.590;2023-11-21T01:52:01;94880.94;;;9.26;94.00
15405;BME280;7801;48.124;11.590;2023-11-21T01:54:34;94877.00;;;9.37;94.23
15405;BME280;7801;48.124;11.590;2023-11-21T01:56:59;94879.06;;;9.26;93.16
15405;BME280;7801;48.124;11.590;2023-11-21T01:59:34;94877.81;;;9.24;93.66
15405;BME280;7801;48.124;11.590;2023-11-21T02:02:00;94885.84;;;8.91;94.21
15405;BME280;7801;48.124;11.590;2023-11-21T02:04:26;94880.75;;;9.09;93.37
15405;BME280;7801;48.124;11.590;2023-11-21T02:06:56;94891.25;;;9.14;93.31
15405;BME280;7801;48.124;11.590;2023-11-21T02:09:28;94890.53;;;8.94;92.51
15405;BME280;7801;48.124;11.590;2023-11-21T02:11:55;94898.00;;;9.34;91.82
15405;BME280;7801;48.124;11.590;2023-11-21T02:14:21;94894.06;;;9.17;92.00
15405;BME280;7801;48.124;11.590;2023-11-21T02:16:50;94894.44;;;9.38;90.95
15405;BME280;7801;48.124;11.590;2023-11-21T02:19:22;94898.16;;;9.37;91.53
15405;BME280;7801;48.124;11.590;2023-11-21T02:22:06;94896.59;;;9.36;92.12
15405;BME280;7801;48.124;11.590;2023-11-21T02:24:34;94894.34;;;9.43;91.63
15405;BME280;7801;48.124;11.590;2023-11-21T02:27:00;94900.16;;;9.32;91.55
15405;BME280;7801;48.124;11.590;2023-11-21T02:29:26;94898.16;;;9.37;91.96
15405;BME280;7801;48.124;11.590;2023-11-21T02:31:57;94891.00;;;9.38;91.97
15405;BME280;7801;48.124;11.590;2023-11-21T02:34:25;94904.06;;;9.07;92.43
15405;BME280;7801;48.124;11.590;2023-11-21T02:36:52;94898.59;;;9.03;92.74
15405;BME280;7801;48.124;11.590;2023-11-21T02:39:21;94902.69;;;8.95;94.40
15405;BME280;7801;48.124;11.590;2023-11-21T02:41:50;94904.25;;;8.83;95.23
15405;BME280;7801;48.124;11.590;2023-11-21T02:44:17;94902.25;;;8.75;96.27
15405;BME280;7801;48.124;11.590;2023-11-21T02:46:44;94903.84;;;8.76;97.21
15405;BME280;7801;48.124;11.590;2023-11-21T02:49:11;94899.91;;;8.73;97.14
15405;BME280;7801;48.124;11.590;2023-11-21T02:51:38;94895.41;;;8.74;97.78
15405;BME280;7801;48.124;11.590;2023-11-21T02:54:06;94891.19;;;8.59;99.15
15405;BME280;7801;48.124;11.590;2023-11-21T02:56:35;94876.69;;;8.56;99.44
15405;BME280;7801;48.124;11.590;2023-11-21T02:59:00;94878.72;;;8.46;99.35
15405;BME280;7801;48.124;11.590;2023-11-21T03:01:28;94874.59;;;8.40;100.00
15405;BME280;7801;48.124;11.590;2023-11-21T03:03:54;94867.38;;;8.26;100.00
15405;BME280;7801;48.124;11.590;2023-11-21T03:06:24;94864.59;;;8.37;100.00
15405;BME280;7801;48.124;11.590;2023-11-21T03:08:56;94868.16;;;8.46;100.00
15405;BME280;7801;48.124;11.590;2023-11-21T03:11:21;94863.84;;;8.50;100.00
15405;BME280;7801;48.124;11.590;2023-11-21T03:13:47;94866.66;;;8.40;100.00
15405;BME280;7801;48.124;11.590;2023-11-21T03:16:15;94863.84;;;8.50;100.00
15405;BME280;7801;48.124;11.590;2023-11-21T03:18:47;94860.94;;;8.65;100.00
15405;BME280;7801;48.124;11.590;2023-11-21T03:21:18;94868.16;;;8.46;99.82
15405;BME280;7801;48.124;11.590;2023-11-21T03:23:46;94858.66;;;8.58;99.80
15405;BME280;7801;48.124;11.590;2023-11-21T03:26:16;94861.81;;;8.60;100.00
15405;BME280;7801;48.124;11.590;2023-11-21T03:28:42;94863.00;;;8.68;100.00
15405;BME280;7801;48.124;11.590;2023-11-21T03:31:07;94854.66;;;8.75;99.51
15405;BME280;7801;48.124;11.590;2023-11-21T03:33:38;94860.03;;;8.56;99.11
15405;BME280;7801;48.124;11.590;2023-11-21T03:36:05;94855.31;;;8.53;99.94
15405;BME280;7801;48.124;11.590;2023-11-21T03:38:31;94858.38;;;8.60;99.58
15405;BME280;7801;48.124;11.590;2023-11-21T03:40:58;94859.72;;;8.44;99.63
15405;BME280;7801;48.124;11.590;2023-11-21T03:43:24;94855.72;;;8.60;99.48
15405;BME280;7801;48.124;11.590;2023-11-21T03:45:51;94852.66;;;8.39;99.33
15405;BME280;7801;48.124;11.590;2023-11-21T03:48:18;94852.69;;;8.53;99.09
15405;BME280;7801;48.124;11.590;2023-11-21T03:50:44;94856.00;;;8.45;99.41
15405;BME280;7801;48.124;11.590;2023-11-21T03:53:10;94853.66;;;8.57;99.45
15405;BME280;7801;48.124;11.590;2023-11-21T03:55:35;94855.53;;;8.56;99.47
15405;BME280;7801;48.124;11.590;2023-11-21T03:58:02;94858.56;;;8.50;99.15
15405;BME280;7801;48.124;11.590;2023-11-21T04:00:30;94857.88;;;8.44;99.35
15405;BME280;7801;48.124;11.590;2023-11-21T04:02:57;94860.25;;;8.59;99.20
15405;BME280;7801;48.124;11.590;2023-11-21T04:05:24;94854.75;;;8.56;99.19
15405;BME280;7801;48.124;11.590;2023-11-21T04:07:50;94865.81;;;8.58;98.95
15405;BME280;7801;48.124;11.590;2023-11-21T04:10:19;94861.28;;;8.45;98.81
15405;BME280;7801;48.124;11.590;2023-11-21T04:12:45;94868.16;;;8.46;99.15
15405;BME280;7801;48.124;11.590;2023-11-21T04:15:11;94864.44;;;8.60;98.52
15405;BME280;7801;48.124;11.590;2023-11-21T04:17:41;94859.94;;;8.61;98.20
15405;BME280;7801;48.124;11.590;2023-11-21T04:20:08;94861.09;;;8.55;98.71
15405;BME280;7801;48.124;11.590;2023-11-21T04:22:43;94854.44;;;8.44;98.86
15405;BME280;7801;48.124;11.590;2023-11-21T04:25:17;94854.78;;;8.70;98.02
15405;BME280;7801;48.124;11.590;2023-11-21T04:27:44;94852.69;;;8.53;98.41
15405;BME280;7801;48.124;11.590;2023-11-21T04:30:12;94860.53;;;8.58;98.29
15405;BME280;7801;48.124;11.590;2023-11-21T04:32:38;94856.81;;;8.59;98.51
15405;BME280;7801;48.124;11.590;2023-11-21T04:35:09;94860.94;;;8.51;98.57
15405;BME280;7801;48.124;11.590;2023-11-21T04:37:34;94865.72;;;8.49;98.09
15405;BME280;7801;48.124;11.590;2023-11-21T04:40:04;94873.03;;;8.52;98.35
15405;BME280;7801;48.124;11.590;2023-11-21T04:42:34;94865.09;;;8.39;99.52
15405;BME280;7801;48.124;11.590;2023-11-21T04:45:05;94869.88;;;8.37;99.39
15405;BME280;7801;48.124;11.590;2023-11-21T04:47:36;94867.56;;;8.49;98.68
15405;BME280;7801;48.124;11.590;2023-11-21T04:50:02;94864.72;;;8.45;98.42
15405;BME280;7801;48.124;11.590;2023-11-21T04:52:34;94864.37;;;8.33;99.15
15405;BME280;7801;48.124;11.590;2023-11-21T04:55:02;94874.16;;;8.33;99.59
15405;BME280;7801;48.124;11.590;2023-11-21T04:57:28;94866.16;;;8.38;99.21
15405;BME280;7801;48.124;11.590;2023-11-21T04:59:58;94858.81;;;8.35;99.50
15405;BME280;7801;48.124;11.590;2023-11-21T05:02:25;94874.31;;;8.41;99.19
15405;BME280;7801;48.124;11.590;2023-11-21T05:04:50;94868.53;;;8.20;100.00
15405;BME280;7801;48.124;11.590;2023-11-21T05:07:18;94866.81;;;8.30;100.00
15405;BME280;7801;48.124;11.590;2023-11-21T05:09:43;94870.38;;;8.39;99.48
15405;BME280;7801;48.124;11.590;2023-11-21T05:12:14;94870.09;;;8.40;98.95
15405;BME280;7801;48.124;11.590;2023-11-21T05:14:40;94861.75;;;8.33;100.00
15405;BME280;7801;48.124;11.590;2023-11-21T05:17:08;94862.81;;;8.13;99.82
15405;BME280;7801;48.124;11.590;2023-11-21T05:19:34;94864.97;;;8.11;100.00
15405;BME280;7801;48.124;11.590;2023-11-21T05:22:01;94876.12;;;8.08;100.00
15405;BME280;7801;48.124;11.590;2023-11-21T05:24:28;94878.69;;;8.13;100.00
15405;BME280;7801;48.124;11.590;2023-11-21T05:26:55;94872.31;;;8.14;99.98
15405;BME280;7801;48.124;11.590;2023-11-21T05:29:22;94881.38;;;8.27;100.00
15405;BME280;7801;48.124;11.590;2023-11-21T05:31:49;94881.09;;;8.47;99.52
15405;BME280;7801;48.124;11.590;2023-11-21T05:34:15;94887.53;;;8.55;98.67
15405;BME280;7801;48.124;11.590;2023-11-21T05:36:43;94889.75;;;8.34;99.39
15405;BME280;7801;48.124;11.590;2023-11-21T05:39:11;94887.81;;;8.40;98.67
15405;BME280;7801;48.124;11.590;2023-11-21T05:41:37;94888.81;;;8.44;99.00
15405;BME280;7801;48.124;11.590;2023-11-21T05:44:03;94892.59;;;8.38;99.01
15405;BME280;7801;48.124;11.590;2023-11-21T05:46:31;94894.16;;;8.39;99.43
15405;BME280;7801;48.124;11.590;2023-11-21T05:48:56;94898.72;;;8.52;99.22
15405;BME280;7801;48.124;11.590;2023-11-21T05:51:22;94894.44;;;8.37;98.83
15405;BME280;7801;48.124;11.590;2023-11-21T05:53:50;94896.59;;;8.35;99.41
15405;BME280;7801;48.124;11.590;2023-11-21T05:56:17;94898.44;;;8.35;99.55
15405;BME280;7801;48.124;11.590;2023-11-21T05:58:46;94894.16;;;8.39;99.06
15405;BME280;7801;48.124;11.590;2023-11-21T06:01:12;94891.06;;;8.50;98.92
15405;BME280;7801;48.124;11.590;2023-11-21T06:03:39;94896.34;;;8.32;99.13
15405;BME280;7801;48.124;11.590;2023-11-21T06:06:04;94896.47;;;8.26;99.38
15405;BME280;7801;48.124;11.590;2023-11-21T06:08:31;94895.22;;;8.38;99.08
15405;BME280;7801;48.124;11.590;2023-11-21T06:10:56;94907.66;;;8.37;99.34
15405;BME280;7801;48.124;11.590;2023-11-21T06:13:23;94895.37;;;8.46;98.66
15405;BME280;7801;48.124;11.590;2023-11-21T06:15:51;94904.66;;;8.25;98.95
15405;BME280;7801;48.124;11.590;2023-11-21T06:18:17;94894.53;;;8.32;99.56
15405;BME280;7801;48.124;11.590;2023-11-21T06:20:45;94911.59;;;8.40;98.68
15405;BME280;7801;48.124;11.590;2023-11-21T06:23:13;94907.16;;;8.35;99.30
15405;BME280;7801;48.124;11.590;2023-11-21T06:25:40;94909.44;;;8.42;99.27
15405;BME280;7801;48.124;11.590;2023-11-21T06:28:09;94911.16;;;8.33;98.87
15405;BME280;7801;48.124;11.590;2023-11-21T06:30:35;94911.00;;;8.43;98.86
15405;BME280;7801;48.124;11.590;2023-11-21T06:33:00;94922.16;;;8.40;98.96
15405;BME280;7801;48.124;11.590;2023-11-21T06:35:27;94919.38;;;8.50;98.38
15405;BME280;7801;48.124;11.590;2023-11-21T06:37:56;94915.50;;;8.42;98.22
15405;BME280;7801;48.124;11.590;2023-11-21T06:40:24;94927.88;;;8.47;98.83
15405;BME280;7801;48.124;11.590;2023-11-21T06:42:51;94920.75;;;8.61;97.62
15405;BME280;7801;48.124;11.590;2023-11-21T06:45:16;94922.78;;;8.32;98.60
15405;BME280;7801;48.124;11.590;2023-11-21T06:47:46;94927.44;;;8.40;98.59
15405;BME280;7801;48.124;11.590;2023-11-21T06:50:13;94934.22;;;8.27;98.70
15405;BME280;7801;48.124;11.590;2023-11-21T06:52:43;94930.03;;;8.45;98.29
15405;BME280;7801;48.124;11.590;2023-11-21T06:55:11;94940.66;;;8.21;98.69
15405;BME280;7801;48.124;11.590;2023-11-21T06:57:37;94935.81;;;8.09;99.22
15405;BME280;7801;48.124;11.590;2023-11-21T07:00:04;94947.28;;;8.18;99.00
15405;BME280;7801;48.124;11.590;2023-11-21T07:02:31;94942.88;;;8.33;98.73
15405;BME280;7801;48.124;11.590;2023-11-21T07:04:56;94952.81;;;8.22;98.49
15405;BME280;7801;48.124;11.590;2023-11-21T07:07:23;94953.81;;;8.26;98.12
15405;BME280;7801;48.124;11.590;2023-11-21T07:09:52;94954.38;;;8.23;98.25
15405;BME280;7801;48.124;11.590;2023-11-21T07:12:18;94955.28;;;8.13;98.53
15405;BME280;7801;48.124;11.590;2023-11-21T07:14:45;94951.72;;;8.23;97.87
15405;BME280;7801;48.124;11.590;2023-11-21T07:17:12;94954.09;;;8.24;97.56
15405;BME280;7801;48.124;11.590;2023-11-21T07:19:39;94954.22;;;8.33;97.45
15405;BME280;7801;48.124;11.590;2023-11-21T07:22:05;94963.31;;;8.46;96.89
15405;BME280;7801;48.124;11.590;2023-11-21T07:24:32;94955.50;;;8.54;99.44
15405;BME280;7801;48.124;11.590;2023-11-21T07:27:03;94955.94;;;11.01;100.00
15405;BME280;7801;48.124;11.590;2023-11-21T07:29:30;94959.78;;;11.57;100.00
15405;BME280;7801;48.124;11.590;2023-11-21T07:31:57;94955.87;;;12.46;96.58
15405;BME280;7801;48.124;11.590;2023-11-21T07:34:24;94962.84;;;13.02;86.29
15405;BME280;7801;48.124;11.590;2023-11-21T07:36:52;94963.84;;;13.45;83.87
15405;BME280;7801;48.124;11.590;2023-11-21T07:39:18;94967.97;;;13.71;81.80
15405;BME280;7801;48.124;11.590;2023-11-21T07:41:46;94960.06;;;14.04;79.02
15405;BME280;7801;48.124;11.590;2023-11-21T07:44:15;94964.38;;;14.38;88.86
15405;BME280;7801;48.124;11.590;2023-11-21T07:46:44;94966.56;;;14.66;86.67
15405;BME280;7801;48.124;11.590;2023-11-21T07:49:09;94966.88;;;13.26;75.29
15405;BME280;7801;48.124;11.590;2023-11-21T07:51:37;94971.59;;;11.91;78.30
15405;BME280;7801;48.124;11.590;2023-11-21T07:54:08;94969.09;;;11.38;81.53
15405;BME280;7801;48.124;11.590;2023-11-21T07:56:34;94986.44;;;10.59;84.56
15405;BME280;7801;48.124;11.590;2023-11-21T07:59:03;94985.50;;;10.06;87.19
15405;BME280;7801;48.124;11.590;2023-11-21T08:01:29;94985.41;;;9.97;88.91
15405;BME280;7801;48.124;11.590;2023-11-21T08:03:56;94979.75;;;9.62;89.97
15405;BME280;7801;48.124;11.590;2023-11-21T08:06:41;94983.28;;;9.72;89.35
15405;BME280;7801;48.124;11.590;2023-11-21T08:09:08;94983.00;;;9.32;90.70
15405;BME280;7801;48.124;11.590;2023-11-21T08:11:35;94990.34;;;9.62;90.47
15405;BME280;7801;48.124;11.590;2023-11-21T08:14:05;94988.28;;;9.32;90.37
15405;BME280;7801;48.124;11.590;2023-11-21T08:16:32;94983.97;;;9.63;89.97
15405;BME280;7801;48.124;11.590;2023-11-21T08:18:57;94979.94;;;9.80;89.47
15405;BME280;7801;48.124;11.590;2023-11-21T08:21:23;94984.84;;;9.73;88.80
15405;BME280;7801;48.124;11.590;2023-11-21T08:23:51;94986.03;;;9.67;89.25
15405;BME280;7801;48.124;11.590;2023-11-21T08:26:21;94985.94;;;9.72;89.10
15405;BME280;7801;48.124;11.590;2023-11-21T08:28:52;94978.19;;;9.75;89.15
15405;BME280;7801;48.124;11.590;2023-11-21T08:31:28;94986.37;;;10.01;89.28
15405;BME280;7801;48.124;11.590;2023-11-21T08:33:58;94982.78;;;9.83;88.03
15405;BME280;7801;48.124;11.590;2023-11-21T08:36:25;94990.59;;;10.02;88.35
15405;BME280;7801;48.124;11.590;2023-11-21T08:38:52;94986.00;;;9.94;87.97
15405;BME280;7801;48.124;11.590;2023-11-21T08:41:18;94979.34;;;9.83;87.71
15405;BME280;7801;48.124;11.590;2023-11-21T08:43:49;94977.16;;;9.98;87.83
15405;BME280;7801;48.124;11.590;2023-11-21T08:46:16;94975.06;;;10.09;86.74
15405;BME280;7801;48.124;11.590;2023-11-21T08:48:44;94979.13;;;9.93;87.35
15405;BME280;7801;48.124;11.590;2023-11-21T08:51:12;94984.47;;;9.65;88.49
15405;BME280;7801;48.124;11.590;2023-11-21T08:53:38;94978.72;;;9.99;87.98
15405;BME280;7801;48.124;11.590;2023-11-21T08:56:05;94976.84;;;10.00;87.09
15405;BME280;7801;48.124;11.590;2023-11-21T08:58:32;94982.00;;;9.96;89.04
15405;BME280;7801;48.124;11.590;2023-11-21T09:00:58;94975.06;;;10.09;87.03
15405;BME280;7801;48.124;11.590;2023-11-21T09:03:24;94982.88;;;9.92;88.38
15405;BME280;7801;48.124;11.590;2023-11-21T09:05:51;94988.06;;;9.97;88.36
15405;BME280;7801;48.124;11.590;2023-11-21T09:08:18;94991.09;;;10.04;89.15
15405;BME280;7801;48.124;11.590;2023-11-21T09:10:44;94988.81;;;10.11;87.77
15405;BME280;7801;48.124;11.590;2023-11-21T09:13:14;94989.03;;;10.51;86.35
15405;BME280;7801;48.124;11.590;2023-11-21T09:15:44;94988.34;;;10.67;86.44
15405;BME280;7801;48.124;11.590;2023-11-21T09:18:15;94995.22;;;10.68;85.25
15405;BME280;7801;48.124;11.590;2023-11-21T09:20:42;94999.28;;;10.66;84.93
15405;BME280;7801;48.124;11.590;2023-11-21T09:23:13;95003.88;;;10.74;86.36
15405;BME280;7801;48.124;11.590;2023-11-21T09:25:40;94997.97;;;10.77;85.45
15405;BME280;7801;48.124;11.590;2023-11-21T09:28:06;95011.22;;;10.55;85.89
15405;BME280;7801;48.124;11.590;2023-11-21T09:30:37;95006.72;;;10.78;85.57
15405;BME280;7801;48.124;11.590;2023-11-21T09:33:03;95020.09;;;10.73;85.18
15405;BME280;7801;48.124;11.590;2023-11-21T09:35:33;95019.41;;;10.67;85.34
15405;BME280;7801;48.124;11.590;2023-11-21T09:38:02;95007.34;;;10.83;86.15
15405;BME280;7801;48.124;11.590;2023-11-21T09:40:41;95018.75;;;10.84;85.85
15405;BME280;7801;48.124;11.590;2023-11-21T09:43:17;95017.34;;;10.86;85.28
15405;BME280;7801;48.124;11.590;2023-11-21T09:45:47;95020.28;;;10.98;86.13
15405;BME280;7801;48.124;11.590;2023-11-21T09:48:15;95021.84;;;10.99;85.63
15405;BME280;7801;48.124;11.590;2023-11-21T09:50:42;95013.91;;;10.86;85.13
15405;BME280;7801;48.124;11.590;2023-11-21T09:53:22;95018.69;;;10.75;86.33
15405;BME280;7801;48.124;11.590;2023-11-21T09:55:55;95013.22;;;10.72;85.65
15405;BME280;7801;48.124;11.590;2023-11-21T09:58:24;95016.56;;;10.63;85.23
15405;BME280;7801;48.124;11.590;2023-11-21T10:00:57;95015.44;;;10.56;86.90
15405;BME280;7801;48.124;11.590;2023-11-21T10:03:24;95021.69;;;10.10;87.19
15405;BME280;7801;48.124;11.590;2023-11-21T10:06:13;95018.97;;;10.02;87.66
15405;BME280;7801;48.124;11.590;2023-11-21T10:08:41;95020.12;;;10.23;87.74
15405;BME280;7801;48.124;11.590;2023-11-21T10:11:08;95028.56;;;10.11;88.28
15405;BME280;7801;48.124;11.590;2023-11-21T10:13:37;95019.94;;;10.06;88.02
15405;BME280;7801;48.124;11.590;2023-11-21T10:16:05;95016.22;;;10.07;88.34
15405;BME280;7801;48.124;11.590;2023-11-21T10:18:38;95016.72;;;10.45;86.88
15405;BME280;7801;48.124;11.590;2023-11-21T10:21:07;95014.44;;;10.29;88.49
15405;BME280;7801;48.124;11.590;2023-11-21T10:23:34;95000.22;;;10.48;87.18
15405;BME280;7801;48.124;11.590;2023-11-21T10:26:01;95009.44;;;10.50;87.24
15405;BME280;7801;48.124;11.590;2023-11-21T10:28:27;95012.28;;;10.54;86.98
15405;BME280;7801;48.124;11.590;2023-11-21T10:30:53;95011.44;;;10.45;87.63
15405;BME280;7801;48.124;11.590;2023-11-21T10:33:40;95012.19;;;10.59;86.87
15405;BME280;7801;48.124;11.590;2023-11-21T10:36:07;95009.53;;;10.59;87.09
15405;BME280;7801;48.124;11.590;2023-11-21T10:38:43;95010.13;;;10.56;86.61
15405;BME280;7801;48.124;11.590;2023-11-21T10:41:11;95011.25;;;10.41;87.39
15405;BME280;7801;48.124;11.590;2023-11-21T10:43:43;95020.16;;;10.59;87.15
15405;BME280;7801;48.124;11.590;2023-11-21T10:46:10;95020.19;;;10.67;87.45
15405;BME280;7801;48.124;11.590;2023-11-21T10:48:36;95028.56;;;10.61;87.15
15405;BME280;7801;48.124;11.590;2023-11-21T10:51:08;95026.47;;;10.72;86.14
15405;BME280;7801;48.124;11.590;2023-11-21T10:53:41;95020.69;;;10.70;86.47
15405;BME280;7801;48.124;11.590;2023-11-21T10:56:11;95020.66;;;10.47;87.68
15405;BME280;7801;48.124;11.590;2023-11-21T10:58:45;95014.84;;;10.59;86.87
15405;BME280;7801;48.124;11.590;2023-11-21T11:01:15;95011.03;;;10.51;87.53
15405;BME280;7801;48.124;11.590;2023-11-21T11:03:50;95012.22;;;10.45;87.93
15405;BME280;7801;48.124;11.590;2023-11-21T11:06:21;95006.03;;;10.50;88.04
15405;BME280;7801;48.124;11.590;2023-11-21T11:08:49;95008.97;;;10.48;87.79
15405;BME280;7801;48.124;11.590;2023-11-21T11:11:20;95010.38;;;10.68;86.91
15405;BME280;7801;48.124;11.590;2023-11-21T11:13:49;95007.09;;;10.49;87.21
15405;BME280;7801;48.124;11.590;2023-11-21T11:16:19;95006.88;;;10.59;87.58
15405;BME280;7801;48.124;11.590;2023-11-21T11:18:48;95008.87;;;10.53;86.89
15405;BME280;7801;48.124;11.590;2023-11-21T11:33:07;95000.91;;;10.98;85.94
15405;BME280;7801;48.124;11.590;2023-11-21T11:36:02;95004.09;;;10.86;87.64
15405;BME280;7801;48.124;11.590;2023-11-21T11:38:37;95004.75;;;10.92;86.33
15405;BME280;7801;48.124;11.590;2023-11-21T11:41:06;95002.97;;;10.79;87.08
15405;BME280;7801;48.124;11.590;2023-11-21T11:43:32;95010.53;;;10.49;87.37
15405;BME280;7801;48.124;11.590;2023-11-21T11:45:59;95001.31;;;10.69;87.43
15405;BME280;7801;48.124;11.590;2023-11-21T11:48:36;95001.41;;;10.42;88.24
15405;BME280;7801;48.124;11.590;2023-11-21T11:51:12;95001.75;;;10.62;87.05
15405;BME280;7801;48.124;11.590;2023-11-21T11:53:46;95002.00;;;10.75;86.94
15405;BME280;7801;48.124;11.590;2023-11-21T11:56:32;95013.38;;;10.53;87.62
15405;BME280;7801;48.124;11.590;2023-11-21T11:59:04;95005.53;;;10.70;87.89
15405;BME280;7801;48.124;11.590;2023-11-21T12:01:36;94997.38;;;10.80;86.18
15405;BME280;7801;48.124;11.590;2023-11-21T12:06:46;94996.31;;;10.45;87.61
15405;BME280;7801;48.124;11.590;2023-11-21T12:09:21;94992.84;;;10.22;88.35
15405;BME280;7801;48.124;11.590;2023-11-21T12:11:49;94999.25;;;10.44;87.54
15405;BME280;7801;48.124;11.590;2023-11-21T12:14:17;94994.97;;;10.34;87.68
15405;BME280;7801;48.124;11.590;2023-11-21T12:16:43;95005.78;;;10.60;87.16
15405;BME280;7801;48.124;11.590;2023-11-21T12:19:13;95005.66;;;10.65;86.28
15405;BME280;7801;48.124;11.590;2023-11-21T12:21:40;95003.88;;;10.74;86.48
15405;BME280;7801;48.124;11.590;2023-11-21T12:24:07;95000.72;;;10.72;86.69
15405;BME280;7801;48.124;11.590;2023-11-21T12:26:34;95000.84;;;10.67;86.47
15405;BME280;7801;48.124;11.590;2023-11-21T12:29:02;95002.03;;;10.83;86.38
15405;BME280;7801;48.124;11.590;2023-11-21T12:31:31;95000.16;;;10.84;84.76
15405;BME280;7801;48.124;11.590;2023-11-21T12:34:07;94996.62;;;10.88;84.90
15405;BME280;7801;48.124;11.590;2023-11-21T12:36:35;94996.78;;;11.14;83.77
15405;BME280;7801;48.124;11.590;2023-11-21T12:39:01;94991.88;;;11.08;83.90
15405;BME280;7801;48.124;11.590;2023-11-21T12:41:30;94986.97;;;11.23;82.71
15405;BME280;7801;48.124;11.590;2023-11-21T12:43:57;94999.03;;;11.29;82.57
15405;BME280;7801;48.124;11.590;2023-11-21T12:46:23;94997.28;;;11.25;82.00
15405;BME280;7801;48.124;11.590;2023-11-21T12:48:52;94989.06;;;11.35;82.35
15405;BME280;7801;48.124;11.590;2023-11-21T12:51:19;94991.78;;;11.52;81.53
15405;BME280;7801;48.124;11.590;2023-11-21T12:53:46;94999.28;;;11.81;79.86
15405;BME280;7801;48.124;11.590;2023-11-21T12:56:13;95006.00;;;11.79;80.65
15405;BME280;7801;48.124;11.590;2023-11-21T12:58:40;95006.81;;;11.96;79.36
15405;BME280;7801;48.124;11.590;2023-11-21T13:01:11;95014.63;;;11.53;81.25
15405;BME280;7801;48.124;11.590;2023-11-21T13:03:38;95013.53;;;11.54;80.45
15405;BME280;7801;48.124;11.590;2023-11-21T13:06:06;95020.19;;;11.43;82.66
15405;BME280;7801;48.124;11.590;2023-11-21T13:08:33;95020.94;;;11.35;84.44
15405;BME280;7801;48.124;11.590;2023-11-21T13:11:01;95023.44;;;10.87;84.61
15405;BME280;7801;48.124;11.590;2023-11-21T13:13:30;95017.38;;;13.60;100.00
15405;BME280;7801;48.124;11.590;2023-11-21T13:16:00;94998.59;;;14.99;89.56
15405;BME280;7801;48.124;11.590;2023-11-21T13:18:28;94999.16;;;15.95;80.21
15405;BME280;7801;48.124;11.590;2023-11-21T13:21:05;95005.28;;;16.72;72.53
15405;BME280;7801;48.124;11.590;2023-11-21T13:23:36;95012.41;;;17.36;67.82
15405;BME280;7801;48.124;11.590;2023-11-21T13:26:03;95012.34;;;17.64;65.97
15405;BME280;7801;48.124;11.590;2023-11-21T13:28:29;95025.63;;;17.72;64.29